createdAt,value
2018-07-05T00:02:09.462Z,19.80
2018-07-05T00:05:02.808Z,19.60
2018-07-05T00:07:55.965Z,19.60
2018-07-05T00:10:49.332Z,19.70
2018-07-05T00:13:42.903Z,19.70
2018-07-05T00:16:36.261Z,19.60
2018-07-05T00:19:29.601Z,19.50
2018-07-05T00:22:22.846Z,19.40
2018-07-05T00:25:16.260Z,19.40
2018-07-05T00:28:09.347Z,19.30
2018-07-05T00:31:02.505Z,19.30
2018-07-05T00:33:56.105Z,19.30
2018-07-05T00:36:49.570Z,19.40
2018-07-05T00:39:42.849Z,19.40
2018-07-05T00:42:36.073Z,19.40
2018-07-05T00:45:29.490Z,19.40
2018-07-05T00:48:22.795Z,19.30
2018-07-05T00:51:16.603Z,19.30
2018-07-05T00:54:09.855Z,19.20
2018-07-05T00:57:03.274Z,19.30
2018-07-05T00:59:56.808Z,19.30
2018-07-05T01:02:50.027Z,19.20
2018-07-05T01:05:43.291Z,19.30
2018-07-05T01:08:36.463Z,19.20
2018-07-05T01:11:29.872Z,19.20
2018-07-05T01:14:23.159Z,19.10
2018-07-05T01:17:16.401Z,19.10
2018-07-05T01:20:09.535Z,19.20
2018-07-05T01:23:03.016Z,19.10
2018-07-05T01:25:56.419Z,19.00
2018-07-05T01:28:49.835Z,19.00
2018-07-05T01:31:43.183Z,18.90
2018-07-05T01:34:36.631Z,18.90
2018-07-05T01:37:30.155Z,19.00
2018-07-05T01:40:23.763Z,19.00
2018-07-05T01:43:16.896Z,19.00
2018-07-05T01:46:10.573Z,18.90
2018-07-05T01:51:51.395Z,18.50
2018-07-05T01:54:44.865Z,18.40
2018-07-05T01:57:38.259Z,18.30
2018-07-05T02:00:31.431Z,18.40
2018-07-05T02:03:24.700Z,18.30
2018-07-05T02:06:17.921Z,18.20
2018-07-05T02:09:11.492Z,18.10
2018-07-05T02:12:04.747Z,18.20
2018-07-05T02:14:58.060Z,18.20
2018-07-05T02:17:51.343Z,18.40
2018-07-05T02:20:44.789Z,18.40
2018-07-05T02:23:37.981Z,18.20
2018-07-05T02:26:31.272Z,18.00
2018-07-05T02:29:24.624Z,18.10
2018-07-05T02:32:17.966Z,18.10
2018-07-05T02:35:11.236Z,18.10
2018-07-05T02:38:09.615Z,18.00
2018-07-05T02:41:03.448Z,17.90
2018-07-05T02:43:56.956Z,17.90
2018-07-05T02:46:50.232Z,17.90
2018-07-05T02:49:43.352Z,17.80
2018-07-05T02:52:36.542Z,17.80
2018-07-05T02:55:29.814Z,17.80
2018-07-05T02:58:22.984Z,17.70
2018-07-05T03:01:16.053Z,17.70
2018-07-05T03:04:10.322Z,17.60
2018-07-05T03:07:03.724Z,17.60
2018-07-05T03:09:56.873Z,17.60
2018-07-05T03:12:50.160Z,17.60
2018-07-05T03:15:43.472Z,17.60
2018-07-05T03:18:36.725Z,17.60
2018-07-05T03:21:30.013Z,17.60
2018-07-05T03:24:23.424Z,17.50
2018-07-05T03:27:16.958Z,17.60
2018-07-05T03:30:10.376Z,17.60
2018-07-05T03:33:03.719Z,17.50
2018-07-05T03:35:57.114Z,17.30
2018-07-05T03:38:50.345Z,17.30
2018-07-05T03:41:43.511Z,17.30
2018-07-05T03:44:36.659Z,17.30
2018-07-05T03:47:30.006Z,17.30
2018-07-05T03:50:23.293Z,17.30
2018-07-05T03:53:16.975Z,17.30
2018-07-05T03:56:10.383Z,17.30
2018-07-05T03:59:03.943Z,17.40
2018-07-05T04:01:57.449Z,17.40
2018-07-05T04:04:50.724Z,17.70
2018-07-05T04:07:44.010Z,17.90
2018-07-05T04:10:37.248Z,17.80
2018-07-05T04:13:30.598Z,17.70
2018-07-05T04:16:24.087Z,17.70
2018-07-05T04:19:17.565Z,17.60
2018-07-05T04:22:10.823Z,17.50
2018-07-05T04:25:04.046Z,17.40
2018-07-05T04:27:57.292Z,17.50
2018-07-05T04:30:50.617Z,17.60
2018-07-05T04:33:43.812Z,17.70
2018-07-05T04:36:37.183Z,17.70
2018-07-05T04:39:30.682Z,17.80
2018-07-05T04:42:24.021Z,18.00
2018-07-05T04:45:17.182Z,17.90
2018-07-05T04:48:10.647Z,18.00
2018-07-05T04:51:03.982Z,18.10
2018-07-05T04:53:57.379Z,18.20
2018-07-05T04:56:50.759Z,18.20
2018-07-05T04:59:44.059Z,18.20
2018-07-05T05:02:37.315Z,18.30
2018-07-05T05:05:30.704Z,18.40
2018-07-05T05:08:24.027Z,18.70
2018-07-05T05:11:17.463Z,18.80
2018-07-05T05:14:10.823Z,18.80
2018-07-05T05:17:04.041Z,18.90
2018-07-05T05:19:57.544Z,18.90
2018-07-05T05:22:50.499Z,19.00
2018-07-05T05:25:43.472Z,19.10
2018-07-05T05:28:36.740Z,19.20
2018-07-05T05:31:29.881Z,19.50
2018-07-05T05:34:23.242Z,20.00
2018-07-05T05:37:16.371Z,20.50
2018-07-05T05:40:09.441Z,21.00
2018-07-05T05:43:02.627Z,21.20
2018-07-05T05:45:56.002Z,21.60
2018-07-05T05:48:49.240Z,22.00
2018-07-05T05:51:42.463Z,21.90
2018-07-05T05:54:35.546Z,22.70
2018-07-05T05:57:28.749Z,23.10
2018-07-05T06:00:22.194Z,23.30
2018-07-05T06:03:15.385Z,23.70
2018-07-05T06:06:08.491Z,23.60
2018-07-05T06:09:01.788Z,24.20
2018-07-05T06:11:55.072Z,24.40
2018-07-05T06:17:35.461Z,24.20
2018-07-05T06:20:28.902Z,24.90
2018-07-05T06:23:22.386Z,25.40
2018-07-05T06:26:15.719Z,25.50
2018-07-05T06:29:08.959Z,25.60
2018-07-05T06:32:02.347Z,25.60
2018-07-05T06:34:55.414Z,25.50
2018-07-05T06:37:48.709Z,25.00
2018-07-05T06:40:42.020Z,25.20
2018-07-05T06:43:35.231Z,26.00
2018-07-05T06:46:28.274Z,25.80
2018-07-05T06:49:21.640Z,26.10
2018-07-05T06:52:14.771Z,26.00
2018-07-05T06:55:08.177Z,26.00
2018-07-05T06:58:01.468Z,25.60
2018-07-05T07:00:54.650Z,25.60
2018-07-05T07:03:47.904Z,25.50
2018-07-05T07:06:41.194Z,25.30
2018-07-05T07:09:34.292Z,25.90
2018-07-05T07:12:27.453Z,26.40
2018-07-05T07:15:20.776Z,26.60
2018-07-05T07:18:14.267Z,26.70
2018-07-05T07:21:07.351Z,26.90
2018-07-05T07:24:00.640Z,27.10
2018-07-05T07:26:53.903Z,27.30
2018-07-05T07:29:47.268Z,27.30
2018-07-05T07:32:40.695Z,27.60
2018-07-05T07:35:33.919Z,27.50
2018-07-05T07:38:27.225Z,27.60
2018-07-05T07:41:20.537Z,27.60
2018-07-05T07:43:55.485Z,27.80
2018-07-05T07:46:30.143Z,27.70
2018-07-05T07:49:04.968Z,27.40
2018-07-05T07:51:39.682Z,25.70
2018-07-05T07:54:14.437Z,26.90
2018-07-05T07:56:49.133Z,27.20
2018-07-05T07:59:23.723Z,27.30
2018-07-05T08:01:58.504Z,27.10
2018-07-05T08:04:33.039Z,27.30
2018-07-05T08:07:07.829Z,27.60
2018-07-05T08:09:42.549Z,27.80
2018-07-05T08:12:17.343Z,27.80
2018-07-05T08:14:52.068Z,27.50
2018-07-05T08:17:26.782Z,27.50
2018-07-05T08:20:01.598Z,27.30
2018-07-05T08:22:36.355Z,27.70
2018-07-05T08:25:10.864Z,28.00
2018-07-05T08:27:45.646Z,28.80
2018-07-05T08:30:20.283Z,28.60
2018-07-05T08:32:55.497Z,28.20
2018-07-05T08:35:30.139Z,27.80
2018-07-05T08:38:04.871Z,27.70
2018-07-05T08:40:39.561Z,28.00
2018-07-05T08:43:14.342Z,28.00
2018-07-05T08:45:49.049Z,27.60
2018-07-05T08:48:23.608Z,27.60
2018-07-05T08:53:33.231Z,27.30
2018-07-05T08:56:07.815Z,27.00
2018-07-05T08:58:42.496Z,26.90
2018-07-05T09:01:17.096Z,26.90
2018-07-05T09:03:51.863Z,27.20
2018-07-05T09:06:26.471Z,27.40
2018-07-05T09:09:01.140Z,27.70
2018-07-05T09:11:35.851Z,28.10
2018-07-05T09:14:10.455Z,28.40
2018-07-05T09:16:45.770Z,28.80
2018-07-05T09:19:20.518Z,29.30
2018-07-05T09:21:55.355Z,28.90
2018-07-05T09:24:30.053Z,29.20
2018-07-05T09:27:04.775Z,29.30
2018-07-05T09:29:39.398Z,29.20
2018-07-05T09:32:14.151Z,29.70
2018-07-05T09:34:48.787Z,29.90
2018-07-05T09:37:23.460Z,29.70
2018-07-05T09:39:58.250Z,29.10
2018-07-05T09:42:32.993Z,28.90
2018-07-05T09:45:07.597Z,28.90
2018-07-05T09:47:42.313Z,28.60
2018-07-05T09:50:16.983Z,28.20
2018-07-05T09:52:51.785Z,27.90
2018-07-05T09:58:01.231Z,28.10
2018-07-05T10:00:40.806Z,27.80
2018-07-05T10:03:15.384Z,27.60
2018-07-05T10:05:50.056Z,27.50
2018-07-05T10:08:24.715Z,27.50
2018-07-05T10:10:59.475Z,27.40
2018-07-05T10:13:34.175Z,27.10
2018-07-05T10:16:08.674Z,26.90
2018-07-05T10:18:43.389Z,26.90
2018-07-05T10:21:18.018Z,26.80
2018-07-05T10:23:52.628Z,27.10
2018-07-05T10:26:27.317Z,27.20
2018-07-05T10:29:20.745Z,27.20
2018-07-05T10:32:14.078Z,27.00
2018-07-05T10:34:48.764Z,26.70
2018-07-05T10:37:23.629Z,26.80
2018-07-05T10:40:17.753Z,26.80
2018-07-05T10:43:11.043Z,26.90
2018-07-05T10:46:04.473Z,26.80
2018-07-05T10:48:57.624Z,26.50
2018-07-05T10:51:51.149Z,26.30
2018-07-05T10:54:44.438Z,26.20
2018-07-05T10:57:37.711Z,26.10
2018-07-05T11:00:30.976Z,26.00
2018-07-05T11:03:24.202Z,26.20
2018-07-05T11:06:17.510Z,26.30
2018-07-05T11:09:10.719Z,26.40
2018-07-05T11:12:04.114Z,26.50
2018-07-05T11:14:57.388Z,26.40
2018-07-05T11:17:50.730Z,26.40
2018-07-05T11:20:44.076Z,26.40
2018-07-05T11:23:37.162Z,26.40
2018-07-05T11:26:30.390Z,26.40
2018-07-05T11:29:23.639Z,26.50
2018-07-05T11:32:17.011Z,26.40
2018-07-05T11:35:10.368Z,26.50
2018-07-05T11:38:03.652Z,26.50
2018-07-05T11:40:57.002Z,26.30
2018-07-05T11:43:50.274Z,26.20
2018-07-05T11:46:43.696Z,26.20
2018-07-05T11:49:36.901Z,26.40
2018-07-05T11:52:30.061Z,26.40
2018-07-05T11:55:23.367Z,26.50
2018-07-05T11:58:16.480Z,26.60
2018-07-05T12:01:09.753Z,26.60
2018-07-05T12:04:03.067Z,26.60
2018-07-05T12:06:56.369Z,26.70
2018-07-05T12:09:49.583Z,26.60
2018-07-05T12:12:42.731Z,26.70
2018-07-05T12:15:36.020Z,26.90
2018-07-05T12:18:29.207Z,27.00
2018-07-05T12:21:22.243Z,27.00
2018-07-05T12:24:15.607Z,26.90
2018-07-05T12:27:08.839Z,26.90
2018-07-05T12:30:01.993Z,27.00
2018-07-05T12:32:55.687Z,27.20
2018-07-05T12:35:49.064Z,27.30
2018-07-05T12:38:42.298Z,27.50
2018-07-05T12:41:35.449Z,27.60
2018-07-05T12:44:28.588Z,27.80
2018-07-05T12:47:21.886Z,27.90
2018-07-05T12:50:15.042Z,28.10
2018-07-05T12:53:08.117Z,27.90
2018-07-05T12:56:01.255Z,27.80
2018-07-05T12:58:54.693Z,27.60
2018-07-05T13:01:47.861Z,27.50
2018-07-05T13:04:41.229Z,27.50
2018-07-05T13:07:34.380Z,27.70
2018-07-05T13:10:27.538Z,27.70
2018-07-05T13:13:20.698Z,27.60
2018-07-05T13:16:13.990Z,27.90
2018-07-05T13:19:07.292Z,28.00
2018-07-05T13:22:00.631Z,27.70
2018-07-05T13:24:53.846Z,27.80
2018-07-05T13:27:47.154Z,27.60
2018-07-05T13:30:40.418Z,27.60
2018-07-05T13:33:33.808Z,27.60
2018-07-05T13:36:27.272Z,27.50
2018-07-05T13:39:20.668Z,27.80
2018-07-05T13:42:13.977Z,27.60
2018-07-05T13:45:07.229Z,27.60
2018-07-05T13:48:00.478Z,27.20
2018-07-05T13:50:53.578Z,27.20
2018-07-05T13:53:46.928Z,27.20
2018-07-05T13:56:40.411Z,27.20
2018-07-05T13:59:33.575Z,27.00
2018-07-05T14:02:27.079Z,27.10
2018-07-05T14:05:20.402Z,27.10
2018-07-05T14:08:13.677Z,26.80
2018-07-05T14:11:06.817Z,26.70
2018-07-05T14:14:00.065Z,26.70
2018-07-05T14:16:53.446Z,26.60
2018-07-05T14:19:46.967Z,26.60
2018-07-05T14:22:40.127Z,26.40
2018-07-05T14:25:33.266Z,26.50
2018-07-05T14:28:26.410Z,26.30
2018-07-05T14:31:20.602Z,26.40
2018-07-05T14:34:14.007Z,26.30
2018-07-05T14:37:07.246Z,26.50
2018-07-05T14:40:00.508Z,26.50
2018-07-05T14:42:53.530Z,26.50
2018-07-05T14:45:46.877Z,26.60
2018-07-05T14:48:40.244Z,26.60
2018-07-05T14:51:33.468Z,26.60
2018-07-05T14:54:26.703Z,26.70
2018-07-05T14:57:20.141Z,26.60
2018-07-05T15:00:13.532Z,26.20
2018-07-05T15:03:06.598Z,26.10
2018-07-05T15:05:59.639Z,26.10
2018-07-05T15:08:52.890Z,26.00
2018-07-05T15:11:46.068Z,26.00
2018-07-05T15:14:39.363Z,26.10
2018-07-05T15:17:32.537Z,26.10
2018-07-05T15:20:25.415Z,26.00
2018-07-05T15:23:18.627Z,26.10
2018-07-05T15:26:11.738Z,26.10
2018-07-05T15:29:05.135Z,26.00
2018-07-05T15:31:58.360Z,26.00
2018-07-05T15:34:51.725Z,26.20
2018-07-05T15:37:45.164Z,26.30
2018-07-05T15:40:38.459Z,26.40
2018-07-05T15:43:31.834Z,26.60
2018-07-05T15:46:25.591Z,26.70
2018-07-05T15:49:18.969Z,26.80
2018-07-05T15:52:12.287Z,26.70
2018-07-05T15:55:05.391Z,26.60
2018-07-05T15:57:58.845Z,26.40
2018-07-05T16:00:52.232Z,26.10
2018-07-05T16:03:45.456Z,26.10
2018-07-05T16:06:38.725Z,26.10
2018-07-05T16:09:32.137Z,26.10
2018-07-05T16:12:25.333Z,25.80
2018-07-05T16:15:18.552Z,25.60
2018-07-05T16:18:11.767Z,25.60
2018-07-05T16:21:05.142Z,25.70
2018-07-05T16:23:58.154Z,25.70
2018-07-05T16:26:51.335Z,25.50
2018-07-05T16:29:44.580Z,25.50
2018-07-05T16:32:37.750Z,25.50
2018-07-05T16:35:31.072Z,25.40
2018-07-05T16:38:24.313Z,25.40
2018-07-05T16:41:17.470Z,25.30
2018-07-05T16:44:10.656Z,25.20
2018-07-05T16:47:03.916Z,25.00
2018-07-05T16:49:57.167Z,24.80
2018-07-05T16:52:50.519Z,24.90
2018-07-05T16:55:43.843Z,24.90
2018-07-05T16:58:37.224Z,24.90
2018-07-05T17:04:19.494Z,24.80
2018-07-05T17:07:13.726Z,24.90
2018-07-05T17:10:07.164Z,25.00
2018-07-05T17:13:00.449Z,25.20
2018-07-05T17:15:53.596Z,25.20
2018-07-05T17:18:46.999Z,25.20
2018-07-05T17:21:40.245Z,25.30
2018-07-05T17:24:33.379Z,25.30
2018-07-05T17:27:26.797Z,25.30
2018-07-05T17:30:20.108Z,25.40
2018-07-05T17:33:13.259Z,25.40
2018-07-05T17:36:06.450Z,25.40
2018-07-05T17:38:59.735Z,25.40
2018-07-05T17:41:52.998Z,25.20
2018-07-05T17:44:46.191Z,25.10
2018-07-05T17:47:39.599Z,25.00
2018-07-05T17:50:32.823Z,24.90
2018-07-05T17:53:26.261Z,24.80
2018-07-05T17:56:19.473Z,24.50
2018-07-05T17:59:12.616Z,24.50
2018-07-05T18:02:05.741Z,24.40
2018-07-05T18:04:58.870Z,24.40
2018-07-05T18:07:52.004Z,24.50
2018-07-05T18:10:45.263Z,24.50
2018-07-05T18:13:38.347Z,24.40
2018-07-05T18:16:31.773Z,24.40
2018-07-05T18:19:24.753Z,24.40
2018-07-05T18:22:17.935Z,24.30
2018-07-05T18:25:11.194Z,24.40
2018-07-05T18:28:04.347Z,24.30
2018-07-05T18:30:57.212Z,24.20
2018-07-05T18:33:50.734Z,24.10
2018-07-05T18:36:43.911Z,24.00
2018-07-05T18:39:37.031Z,24.00
2018-07-05T18:42:31.697Z,24.00
2018-07-05T18:45:24.747Z,23.90
2018-07-05T18:48:18.130Z,23.90
2018-07-05T18:51:11.408Z,23.80
2018-07-05T18:54:04.846Z,23.90
2018-07-05T18:56:58.247Z,23.90
2018-07-05T18:59:51.472Z,23.70
2018-07-05T19:02:44.732Z,23.60
2018-07-05T19:05:38.101Z,23.60
2018-07-05T19:08:31.570Z,23.60
2018-07-05T19:11:24.720Z,23.60
2018-07-05T19:14:17.746Z,23.60
2018-07-05T19:17:10.952Z,23.60
2018-07-05T19:20:04.258Z,23.50
2018-07-05T19:22:57.538Z,23.50
2018-07-05T19:25:50.968Z,23.50
2018-07-05T19:28:44.232Z,23.40
2018-07-05T19:31:37.433Z,23.30
2018-07-05T19:34:30.694Z,23.30
2018-07-05T19:37:24.205Z,23.20
2018-07-05T19:40:17.631Z,23.20
2018-07-05T19:43:10.732Z,23.10
2018-07-05T19:46:04.164Z,23.10
2018-07-05T19:48:57.327Z,23.00
2018-07-05T19:51:50.790Z,22.90
2018-07-05T19:54:44.196Z,22.90
2018-07-05T19:57:37.426Z,22.90
2018-07-05T20:00:30.768Z,22.90
2018-07-05T20:03:23.840Z,22.80
2018-07-05T20:06:17.138Z,22.80
2018-07-05T20:09:10.758Z,22.70
2018-07-05T20:12:06.617Z,22.70
2018-07-05T20:14:59.848Z,22.70
2018-07-05T20:17:53.074Z,22.60
2018-07-05T20:20:46.607Z,22.60
2018-07-05T20:23:39.908Z,22.60
2018-07-05T20:26:33.409Z,22.60
2018-07-05T20:29:26.870Z,22.60
2018-07-05T20:32:19.880Z,22.60
2018-07-05T20:35:13.108Z,22.60
2018-07-05T20:38:06.360Z,22.50
2018-07-05T20:40:59.523Z,22.50
2018-07-05T20:43:52.835Z,22.40
2018-07-05T20:46:46.125Z,22.40
2018-07-05T20:49:39.283Z,22.40
2018-07-05T20:52:32.712Z,22.40
2018-07-05T20:55:25.979Z,22.40
2018-07-05T20:58:19.140Z,22.30
2018-07-05T21:01:12.299Z,22.40
2018-07-05T21:04:05.915Z,22.30
2018-07-05T21:06:59.381Z,22.20
2018-07-05T21:09:52.635Z,22.20
2018-07-05T21:12:46.004Z,22.20
2018-07-05T21:15:39.282Z,22.50
2018-07-05T21:18:32.659Z,22.10
2018-07-05T21:21:25.982Z,22.10
2018-07-05T21:24:19.217Z,22.10
2018-07-05T21:27:12.667Z,22.10
2018-07-05T21:30:06.331Z,22.10
2018-07-05T21:32:59.786Z,22.10
2018-07-05T21:35:53.096Z,22.10
2018-07-05T21:38:46.331Z,22.10
2018-07-05T21:41:39.509Z,22.10
2018-07-05T21:44:32.832Z,22.10
2018-07-05T21:47:26.171Z,22.10
2018-07-05T21:50:19.500Z,22.10
2018-07-05T21:53:12.810Z,22.00
2018-07-05T21:56:06.072Z,21.90
2018-07-05T21:59:00.804Z,22.00
2018-07-05T22:01:54.570Z,21.90
2018-07-05T22:04:47.752Z,22.00
2018-07-05T22:07:41.212Z,22.00
2018-07-05T22:10:34.760Z,22.00
2018-07-05T22:13:28.023Z,22.00
2018-07-05T22:16:21.293Z,21.90
2018-07-05T22:19:19.674Z,21.90
2018-07-05T22:22:18.177Z,21.90
2018-07-05T22:25:16.603Z,21.90
2018-07-05T22:28:15.103Z,21.90
2018-07-05T22:31:13.643Z,21.90
2018-07-05T22:34:07.003Z,21.90
2018-07-05T22:37:00.442Z,21.90
2018-07-05T22:39:54.368Z,21.90
2018-07-05T22:42:47.597Z,21.90
2018-07-05T22:45:41.150Z,21.90
2018-07-05T22:48:34.572Z,21.90
2018-07-05T22:51:27.920Z,21.90
2018-07-05T22:54:21.357Z,21.90
2018-07-05T22:57:14.786Z,21.90
2018-07-05T23:00:08.254Z,21.90
2018-07-05T23:03:01.451Z,21.90
2018-07-05T23:05:54.731Z,21.90
2018-07-05T23:08:48.021Z,21.90
2018-07-05T23:11:41.343Z,21.70
2018-07-05T23:14:34.570Z,21.70
2018-07-05T23:17:28.675Z,21.60
2018-07-05T23:20:21.945Z,21.60
2018-07-05T23:23:15.303Z,21.60
2018-07-05T23:26:08.572Z,21.70
2018-07-05T23:29:01.817Z,21.70
2018-07-05T23:31:55.246Z,21.60
2018-07-05T23:34:48.591Z,21.60
2018-07-05T23:37:41.934Z,21.60
2018-07-05T23:40:35.154Z,21.60
2018-07-05T23:43:28.387Z,21.60
2018-07-05T23:46:21.670Z,21.50
2018-07-05T23:49:14.728Z,21.60
2018-07-05T23:52:07.928Z,21.60
2018-07-05T23:55:01.152Z,21.60
2018-07-05T23:57:54.592Z,21.60
